Time;durP1;ratioP1;P1;durP2;ratioP2;P2;SDS_P1;SDS_P2;PMS_P1;PMS_P2;Temp;Humidity;BMP_temperature;BMP_pressure;BME280_temperature;BME280_humidity;BME280_pressure;Samples;Min_cycle;Max_cycle;Signal;HPM_P1;HPM_P2
2023/06/08 00:00:20;;;;;;;4.50;2.80;;;;;;;27.82;34.63;101762.59;5008390;28;96838;-79
2023/06/08 00:02:48;;;;;;;3.75;2.90;;;;;;;27.83;34.75;101757.91;5006619;28;96777;-79
2023/06/08 00:05:16;;;;;;;5.13;3.05;;;;;;;27.82;34.68;101759.81;5008419;28;97409;-79
2023/06/08 00:07:43;;;;;;;3.83;3.00;;;;;;;27.81;34.87;101755.34;5006538;28;97447;-79
2023/06/08 00:10:10;;;;;;;3.58;3.15;;;;;;;27.83;34.57;101755.16;5008701;28;97378;-79
2023/06/08 00:12:37;;;;;;;3.45;2.80;;;;;;;27.83;34.62;101764.28;5006417;28;96703;-79
2023/06/08 00:15:06;;;;;;;2.50;2.28;;;;;;;27.82;34.58;101758.97;5006797;28;97197;-79
2023/06/08 00:17:32;;;;;;;3.05;2.47;;;;;;;27.81;34.88;101760.88;5007551;28;98525;-78
2023/06/08 00:20:08;;;;;;;3.80;2.70;;;;;;;27.83;34.73;101760.69;5005745;28;97579;-78
2023/06/08 00:22:36;;;;;;;3.90;2.70;;;;;;;27.81;34.48;101760.03;5008585;28;96721;-79
2023/06/08 00:25:04;;;;;;;3.47;2.33;;;;;;;27.81;34.62;101758.13;5007166;28;96936;-79
2023/06/08 00:27:30;;;;;;;3.42;2.70;;;;;;;27.82;34.77;101762.59;5007242;28;96763;-78
2023/06/08 00:29:57;;;;;;;3.63;2.50;;;;;;;27.81;34.63;101749.84;5006507;28;97746;-79
2023/06/08 00:32:24;;;;;;;2.97;2.42;;;;;;;27.81;34.70;101749.84;4978452;28;97080;-78
2023/06/08 00:34:50;;;;;;;2.92;2.60;;;;;;;27.81;34.60;101749.84;5006356;28;96942;-78
2023/06/08 00:37:17;;;;;;;3.90;2.67;;;;;;;27.81;34.64;101744.31;4975102;28;99144;-78
2023/06/08 00:39:44;;;;;;;2.92;2.28;;;;;;;27.81;34.66;101748.97;5007296;28;97393;-79
2023/06/08 00:42:10;;;;;;;3.97;2.75;;;;;;;27.80;34.65;101742.59;5007657;28;97239;-79
2023/06/08 00:44:37;;;;;;;3.78;2.47;;;;;;;27.80;34.66;101745.38;5006407;28;97368;-78
2023/06/08 00:47:03;;;;;;;3.75;2.67;;;;;;;27.80;34.63;101741.75;5006329;28;97004;-78
2023/06/08 00:49:32;;;;;;;3.05;2.35;;;;;;;27.81;34.59;101743.47;5007538;28;96714;-79
2023/06/08 00:52:00;;;;;;;4.22;2.63;;;;;;;27.80;34.60;101731.56;5005900;28;96816;-79
2023/06/08 00:54:30;;;;;;;4.10;2.35;;;;;;;27.80;34.60;101734.31;5003225;28;97158;-79
2023/06/08 00:57:00;;;;;;;3.92;2.38;;;;;;;27.81;34.63;101735.19;5006985;28;98217;-79
2023/06/08 00:59:30;;;;;;;4.28;2.50;;;;;;;27.81;34.59;101732.41;5004398;28;99003;-79
2023/06/08 01:01:57;;;;;;;3.47;2.53;;;;;;;27.80;34.66;101727.97;5007193;28;98639;-78
2023/06/08 01:04:25;;;;;;;2.78;2.30;;;;;;;27.79;34.54;101729.88;5005669;28;96824;-79
2023/06/08 01:07:14;;;;;;;2.95;2.30;;;;;;;27.80;34.61;101725.19;5007117;28;98402;-78
2023/06/08 01:09:54;;;;;;;3.17;2.63;;;;;;;27.79;34.71;101729.00;5005590;28;96715;-79
2023/06/08 01:12:32;;;;;;;3.10;2.50;;;;;;;27.78;34.73;101735.59;4989168;28;96701;-79
2023/06/08 01:15:29;;;;;;;3.72;2.38;;;;;;;27.79;34.76;101734.53;5006449;28;96961;-79
2023/06/08 01:18:04;;;;;;;3.00;2.25;;;;;;;27.76;34.73;101734.94;5002758;28;100729;-78
2023/06/08 01:21:11;;;;;;;2.67;2.28;;;;;;;27.77;34.63;101737.50;5006254;28;97861;-79
2023/06/08 01:23:55;;;;;;;2.97;2.53;;;;;;;27.75;34.56;101733.22;4982749;28;98074;-78
2023/06/08 01:26:25;;;;;;;3.10;2.20;;;;;;;27.75;34.95;101736.00;4990161;28;97036;-79
2023/06/08 01:28:52;;;;;;;2.53;2.15;;;;;;;27.74;34.60;101732.38;4975443;28;96877;-79
2023/06/08 01:31:20;;;;;;;3.35;2.05;;;;;;;27.75;34.68;101723.03;4973551;28;98180;-79
2023/06/08 01:33:47;;;;;;;2.50;2.30;;;;;;;27.75;34.67;101727.72;4987012;28;97340;-78
2023/06/08 01:36:21;;;;;;;4.00;2.30;;;;;;;27.76;34.53;101723.88;5006886;28;97433;-78
2023/06/08 01:39:06;;;;;;;3.00;2.30;;;;;;;27.76;34.76;101726.66;4988200;28;99420;-78
2023/06/08 01:41:36;;;;;;;3.92;2.20;;;;;;;27.74;34.63;101726.00;5006016;28;97526;-79
2023/06/08 01:44:07;;;;;;;3.25;2.53;;;;;;;27.75;34.62;101724.94;5003903;28;98400;-79
2023/06/08 01:46:33;;;;;;;3.47;2.40;;;;;;;27.74;34.67;101726.84;5004762;28;97117;-79
2023/06/08 01:49:03;;;;;;;2.88;2.50;;;;;;;27.74;34.71;101726.00;5004243;28;99779;-79
2023/06/08 01:51:32;;;;;;;2.95;2.50;;;;;;;27.74;34.56;101726.00;5006638;28;97398;-78
2023/06/08 01:54:03;;;;;;;3.17;2.50;;;;;;;27.74;34.65;101726.84;5004557;28;96859;-79
2023/06/08 01:56:31;;;;;;;2.92;2.28;;;;;;;27.74;34.58;101720.47;4987682;28;96740;-79
2023/06/08 01:58:58;;;;;;;3.15;2.30;;;;;;;27.73;34.68;101714.09;5004411;28;99383;-79
2023/06/08 02:01:24;;;;;;;2.50;2.08;;;;;;;27.74;34.61;101720.47;5004842;28;100649;-79
2023/06/08 02:03:51;;;;;;;2.72;2.45;;;;;;;27.73;34.45;101716.88;5006344;28;96780;-79
2023/06/08 02:06:18;;;;;;;3.38;2.30;;;;;;;27.73;34.67;101714.09;4974946;28;97215;-79
2023/06/08 02:08:45;;;;;;;3.22;2.50;;;;;;;27.74;34.58;101714.97;5004611;28;99394;-78
2023/06/08 02:11:12;;;;;;;3.08;2.40;;;;;;;27.73;34.98;101714.09;5003384;28;100328;-78
2023/06/08 02:13:43;;;;;;;2.90;2.20;;;;;;;27.74;34.61;101709.44;5003698;28;97481;-79
2023/06/08 02:16:10;;;;;;;3.10;2.60;;;;;;;27.73;34.73;101713.25;5004820;28;96753;-79
2023/06/08 02:18:41;;;;;;;2.75;2.25;;;;;;;27.74;34.67;101712.19;5004458;28;99590;-79
2023/06/08 02:21:09;;;;;;;3.03;2.22;;;;;;;27.72;34.64;101698.59;5007362;28;96748;-78
2023/06/08 02:23:37;;;;;;;3.22;2.13;;;;;;;27.74;34.51;101709.44;5002984;28;97095;-79
2023/06/08 02:26:06;;;;;;;2.85;1.92;;;;;;;27.74;34.60;101703.91;5004817;28;96888;-79
2023/06/08 02:28:34;;;;;;;2.78;2.00;;;;;;;27.72;34.64;101706.88;5004861;28;99023;-78
2023/06/08 02:31:05;;;;;;;2.72;2.03;;;;;;;27.72;34.56;101701.34;5003227;28;100694;-78
2023/06/08 02:33:33;;;;;;;2.92;2.00;;;;;;;27.72;34.62;101703.25;5002144;28;96991;-78
2023/06/08 02:36:00;;;;;;;3.60;2.40;;;;;;;27.72;34.62;101703.25;5004069;28;97114;-79
2023/06/08 02:38:30;;;;;;;3.67;2.25;;;;;;;27.72;34.57;101703.25;5001820;28;100400;-79
2023/06/08 02:40:56;;;;;;;3.30;2.20;;;;;;;27.70;34.52;101705.38;5005448;28;96825;-78
2023/06/08 02:43:23;;;;;;;2.60;2.05;;;;;;;27.71;34.63;101707.06;5007778;28;97190;-78
2023/06/08 02:45:50;;;;;;;3.25;2.53;;;;;;;27.71;34.58;101702.41;5008141;28;97039;-79
2023/06/08 02:48:20;;;;;;;2.58;2.10;;;;;;;27.70;34.65;101703.47;5007539;28;99299;-79
2023/06/08 02:50:46;;;;;;;3.58;2.53;;;;;;;27.69;34.57;101703.66;5008043;28;99746;-78
2023/06/08 02:53:13;;;;;;;3.17;2.50;;;;;;;27.70;34.65;101702.63;4994096;28;97891;-79
2023/06/08 02:55:39;;;;;;;2.70;2.10;;;;;;;27.70;34.51;101705.38;5008592;28;97244;-79
2023/06/08 02:58:14;;;;;;;3.22;2.28;;;;;;;27.69;34.75;101704.53;5007870;28;99471;-79
2023/06/08 03:00:40;;;;;;;2.67;2.20;;;;;;;27.69;34.32;101707.28;5010043;28;98374;-79
2023/06/08 03:03:29;;;;;;;2.90;2.47;;;;;;;27.68;34.52;101701.97;5007988;28;96820;-78
2023/06/08 03:06:01;;;;;;;3.17;2.35;;;;;;;27.67;34.50;101698.34;5006435;28;97229;-79
2023/06/08 03:08:36;;;;;;;2.30;2.10;;;;;;;27.67;34.59;101701.09;4975366;28;99328;-79
2023/06/08 03:11:04;;;;;;;2.35;2.00;;;;;;;27.66;34.79;101693.88;5007523;28;98378;-78
2023/06/08 03:13:31;;;;;;;2.20;1.90;;;;;;;27.67;34.60;101692.81;5007785;28;96863;-79
2023/06/08 03:15:58;;;;;;;2.25;1.90;;;;;;;27.66;34.33;101693.88;5006987;28;97650;-79
2023/06/08 03:18:25;;;;;;;2.65;2.08;;;;;;;27.67;34.58;101687.31;5006039;28;98815;-78
2023/06/08 03:20:51;;;;;;;2.83;2.05;;;;;;;27.66;34.94;101688.38;4991883;28;100011;-78
2023/06/08 03:23:20;;;;;;;2.35;2.10;;;;;;;27.67;34.63;101689.22;5006693;28;97201;-79
2023/06/08 03:25:48;;;;;;;2.67;2.30;;;;;;;27.67;34.68;101694.72;4975225;28;97476;-78
2023/06/08 03:28:16;;;;;;;3.20;2.10;;;;;;;27.67;34.56;101697.50;5006412;28;100622;-78
2023/06/08 03:30:44;;;;;;;3.72;1.80;;;;;;;27.67;34.64;101697.50;5007441;28;98978;-79
2023/06/08 03:33:12;;;;;;;2.35;2.05;;;;;;;27.66;34.43;101698.56;4993991;28;96658;-79
2023/06/08 03:35:47;;;;;;;2.33;1.88;;;;;;;27.65;34.74;101694.09;5005596;28;96804;-79
2023/06/08 03:38:34;;;;;;;2.58;1.83;;;;;;;27.64;34.40;101693.22;4991323;28;97926;-79
2023/06/08 03:41:04;;;;;;;2.17;1.90;;;;;;;27.64;34.67;101693.22;4989565;28;100487;-79
2023/06/08 03:43:31;;;;;;;2.65;1.88;;;;;;;27.64;34.60;101696.00;4992896;28;96887;-79
2023/06/08 03:45:58;;;;;;;3.55;2.10;;;;;;;27.65;34.45;101688.56;5007347;28;96663;-79
2023/06/08 03:48:25;;;;;;;2.58;1.70;;;;;;;27.66;34.45;101690.28;4990011;28;99662;-78
2023/06/08 03:50:53;;;;;;;2.35;2.03;;;;;;;27.64;34.53;101693.22;5006544;28;99325;-78
2023/06/08 03:53:21;;;;;;;2.47;2.10;;;;;;;27.63;34.56;101691.53;5005005;28;97024;-79
2023/06/08 03:55:47;;;;;;;2.70;2.22;;;;;;;27.62;34.44;101687.06;5006974;28;96950;-79
2023/06/08 03:58:14;;;;;;;2.10;1.90;;;;;;;27.62;34.64;101684.28;4990908;28;98971;-79
2023/06/08 04:00:43;;;;;;;2.22;1.95;;;;;;;27.64;34.59;101686.84;4991152;28;99993;-79
2023/06/08 04:03:12;;;;;;;2.28;2.08;;;;;;;27.63;34.65;101686.00;5007361;28;97200;-79
2023/06/08 04:05:39;;;;;;;3.38;2.25;;;;;;;27.62;34.63;101692.56;4990288;28;98862;-78
2023/06/08 04:08:06;;;;;;;2.00;1.80;;;;;;;27.63;34.87;101688.75;4991047;28;99849;-79
2023/06/08 04:10:33;;;;;;;2.20;1.88;;;;;;;27.62;34.13;101689.81;5006470;28;99206;-79
2023/06/08 04:12:59;;;;;;;2.10;1.85;;;;;;;27.63;34.55;101687.91;5008159;28;96883;-79
2023/06/08 04:15:26;;;;;;;2.00;1.77;;;;;;;27.62;34.52;101678.78;4990556;28;97459;-78
2023/06/08 04:17:55;;;;;;;2.70;2.00;;;;;;;27.64;34.64;101686.84;5005610;28;98731;-78
2023/06/08 04:20:23;;;;;;;2.95;2.10;;;;;;;27.62;34.65;101689.81;5006088;28;97769;-79
2023/06/08 04:22:50;;;;;;;2.45;1.92;;;;;;;27.63;34.69;101686.00;4974971;28;96963;-79
2023/06/08 04:25:19;;;;;;;2.80;2.00;;;;;;;27.62;34.65;101689.81;5006461;28;96663;-79
2023/06/08 04:27:46;;;;;;;2.00;1.70;;;;;;;27.62;34.88;101681.53;5006475;28;99869;-79
2023/06/08 04:30:12;;;;;;;2.78;1.88;;;;;;;27.63;34.49;101682.38;5007955;28;97791;-79
2023/06/08 04:32:41;;;;;;;2.50;1.90;;;;;;;27.63;34.55;101686.00;5006681;28;97342;-79
2023/06/08 04:35:08;;;;;;;2.75;1.95;;;;;;;27.63;34.63;101683.25;5005695;28;96926;-78
2023/06/08 04:37:36;;;;;;;2.13;1.75;;;;;;;27.64;34.59;101676.66;5005939;28;99196;-79
2023/06/08 04:40:04;;;;;;;2.35;1.92;;;;;;;27.64;34.81;101684.94;5007320;28;97280;-79
2023/06/08 04:42:33;;;;;;;2.22;1.88;;;;;;;27.65;34.75;101683.03;4989797;28;96860;-78
2023/06/08 04:45:03;;;;;;;2.50;1.90;;;;;;;27.64;34.49;101684.94;5005817;28;97307;-79
2023/06/08 04:47:31;;;;;;;1.60;1.50;;;;;;;27.65;34.61;101694.09;4975441;28;99026;-79
2023/06/08 04:49:58;;;;;;;2.70;1.80;;;;;;;27.64;34.46;101687.72;4974820;28;99235;-79
2023/06/08 04:52:26;;;;;;;3.08;2.30;;;;;;;27.64;34.53;101684.94;4991794;28;97075;-79
2023/06/08 04:54:52;;;;;;;2.30;1.95;;;;;;;27.64;34.64;101687.72;5006797;28;97639;-79
2023/06/08 04:57:22;;;;;;;2.05;1.77;;;;;;;27.64;34.54;101690.47;5006376;28;97655;-79
2023/06/08 04:59:49;;;;;;;2.58;2.10;;;;;;;27.65;34.57;101691.31;5006317;28;97367;-79
2023/06/08 05:02:15;;;;;;;2.20;1.63;;;;;;;27.65;34.95;101688.56;5007465;28;96964;-79
2023/06/08 05:04:42;;;;;;;2.80;1.98;;;;;;;27.65;34.41;101692.19;5007337;28;97171;-79
2023/06/08 05:07:09;;;;;;;1.80;1.70;;;;;;;27.65;34.30;101688.56;5005492;28;100348;-78
2023/06/08 05:09:36;;;;;;;2.08;1.70;;;;;;;27.65;34.58;101689.41;5006897;28;96884;-78
2023/06/08 05:12:07;;;;;;;2.35;2.10;;;;;;;27.65;34.53;101685.81;5004868;28;96801;-79
2023/06/08 05:14:33;;;;;;;2.65;1.98;;;;;;;27.65;34.58;101688.56;5005222;28;97327;-79
2023/06/08 05:17:00;;;;;;;2.80;2.10;;;;;;;27.63;34.87;101683.25;4993332;28;97256;-79
2023/06/08 05:19:26;;;;;;;2.38;1.80;;;;;;;27.66;34.65;101684.75;5005749;28;96806;-79
2023/06/08 05:21:53;;;;;;;2.10;1.88;;;;;;;27.65;34.58;101686.66;5007448;28;96826;-78
2023/06/08 05:24:20;;;;;;;2.20;1.95;;;;;;;27.67;34.67;101690.06;5007876;28;97126;-79
2023/06/08 05:26:47;;;;;;;2.80;2.20;;;;;;;27.66;34.60;101684.75;5006795;28;96812;-79
2023/06/08 05:29:14;;;;;;;2.45;1.90;;;;;;;27.67;34.47;101694.72;5006219;28;97276;-79
2023/06/08 05:31:40;;;;;;;2.20;1.90;;;;;;;27.66;34.53;101688.38;4988207;28;97277;-79
2023/06/08 05:34:07;;;;;;;2.33;1.80;;;;;;;27.66;34.53;101688.38;5007912;28;98251;-79
2023/06/08 05:36:33;;;;;;;2.47;1.95;;;;;;;27.66;34.54;101690.28;5005936;28;98867;-79
2023/06/08 05:39:03;;;;;;;2.45;1.90;;;;;;;27.66;34.68;101685.59;5004793;28;97255;-79
2023/06/08 05:41:30;;;;;;;2.67;2.00;;;;;;;27.66;34.36;101685.59;5005731;28;96930;-78
2023/06/08 05:43:57;;;;;;;2.65;1.85;;;;;;;27.67;34.65;101687.31;4972610;28;96928;-79
2023/06/08 05:46:23;;;;;;;2.75;1.90;;;;;;;27.66;34.86;101685.59;5007386;28;97226;-79
2023/06/08 05:48:50;;;;;;;1.67;1.50;;;;;;;27.67;34.89;101692.81;5006575;28;96762;-79
2023/06/08 05:51:17;;;;;;;1.67;1.55;;;;;;;27.68;34.56;101685.41;5007240;28;97572;-78
2023/06/08 05:53:44;;;;;;;2.22;1.75;;;;;;;27.67;34.53;101687.31;5003941;28;97011;-78
2023/06/08 05:56:10;;;;;;;2.90;1.75;;;;;;;27.68;34.88;101685.41;4992161;28;97724;-78
2023/06/08 05:58:37;;;;;;;2.20;2.00;;;;;;;27.67;34.33;101686.47;5003988;28;97713;-78
2023/06/08 06:01:17;;;;;;;1.85;1.70;;;;;;;27.67;34.50;101687.31;5005746;28;97201;-78
2023/06/08 06:03:43;;;;;;;2.33;1.70;;;;;;;27.68;34.56;101685.41;5006050;28;97225;-78
2023/06/08 06:06:11;;;;;;;2.15;1.75;;;;;;;27.68;34.45;101677.13;4990732;28;96922;-78
2023/06/08 06:08:38;;;;;;;2.60;1.88;;;;;;;27.68;34.44;101683.50;5006059;28;96836;-79
2023/06/08 06:11:07;;;;;;;2.13;1.92;;;;;;;27.68;34.58;101686.25;5003092;28;96601;-78
2023/06/08 06:13:34;;;;;;;2.78;2.00;;;;;;;27.69;34.58;101676.06;5006932;28;97152;-79
2023/06/08 06:16:00;;;;;;;2.20;1.73;;;;;;;27.69;34.57;101674.16;5007727;28;97904;-79
2023/06/08 06:18:27;;;;;;;2.00;1.80;;;;;;;27.68;34.63;101677.97;5011160;28;100517;-79
2023/06/08 06:20:54;;;;;;;1.92;1.60;;;;;;;27.69;34.64;101682.44;5012007;28;96727;-79
2023/06/08 06:23:20;;;;;;;2.00;1.67;;;;;;;27.69;34.81;101676.06;5012701;28;97425;-79
2023/06/08 06:25:50;;;;;;;2.58;1.90;;;;;;;27.69;34.39;101682.44;5010184;28;98594;-79
2023/06/08 06:28:16;;;;;;;2.28;1.70;;;;;;;27.70;34.50;101686.06;4980815;28;99085;-78
2023/06/08 06:30:43;;;;;;;2.03;1.83;;;;;;;27.70;34.59;101683.28;5012816;28;97269;-79
2023/06/08 06:33:09;;;;;;;1.85;1.63;;;;;;;27.70;34.56;101686.91;5012498;28;96851;-78
2023/06/08 06:35:36;;;;;;;2.33;1.80;;;;;;;27.71;34.41;101690.53;5013569;28;97583;-79
2023/06/08 06:38:02;;;;;;;1.80;1.60;;;;;;;27.70;34.79;101686.91;5013198;28;96833;-78
2023/06/08 06:40:29;;;;;;;2.58;1.80;;;;;;;27.70;34.49;101689.66;5011797;28;97180;-78
2023/06/08 06:42:56;;;;;;;2.33;1.65;;;;;;;27.70;34.39;101686.06;5013278;28;97435;-78
2023/06/08 06:45:32;;;;;;;2.25;1.80;;;;;;;27.70;34.44;101695.19;5010635;28;99317;-79
2023/06/08 06:47:58;;;;;;;2.50;1.90;;;;;;;27.70;34.51;101697.94;5013324;28;97483;-78
2023/06/08 06:50:25;;;;;;;2.97;1.73;;;;;;;27.71;34.47;101690.53;4990342;28;97024;-78
2023/06/08 06:52:52;;;;;;;2.30;1.70;;;;;;;27.71;34.50;101702.41;5006984;28;97290;-78
2023/06/08 06:55:21;;;;;;;3.05;1.80;;;;;;;27.70;34.40;101692.44;5012531;28;96831;-78
2023/06/08 06:57:48;;;;;;;1.67;1.48;;;;;;;27.72;34.45;101700.50;5000133;28;98369;-78
2023/06/08 07:00:15;;;;;;;2.58;1.70;;;;;;;27.72;34.57;101706.03;5013249;28;96849;-79
2023/06/08 07:02:43;;;;;;;2.47;2.00;;;;;;;27.72;34.57;101706.88;5013618;28;96601;-79
2023/06/08 07:05:10;;;;;;;2.60;1.65;;;;;;;27.72;34.51;101704.13;5001006;28;96838;-78
2023/06/08 07:07:37;;;;;;;2.35;1.73;;;;;;;27.72;34.42;101698.59;5009769;28;96886;-79
2023/06/08 07:10:04;;;;;;;1.88;1.58;;;;;;;27.73;34.56;101696.69;5012261;28;96982;-78
2023/06/08 07:12:32;;;;;;;1.65;1.55;;;;;;;27.73;34.43;101700.31;5012690;28;96659;-78
2023/06/08 07:14:58;;;;;;;2.30;1.50;;;;;;;27.73;34.45;101693.94;4994834;28;99128;-78
2023/06/08 07:17:25;;;;;;;3.58;1.73;;;;;;;27.74;34.63;101693.72;5012552;28;96872;-79
2023/06/08 07:19:53;;;;;;;2.03;1.77;;;;;;;27.73;34.11;101694.78;5011453;28;96770;-78
2023/06/08 07:22:20;;;;;;;2.10;1.90;;;;;;;27.74;34.54;101690.13;5013128;28;97416;-78
2023/06/08 07:25:05;;;;;;;2.53;2.08;;;;;;;27.73;34.48;101694.78;5012946;28;97949;-78
2023/06/08 07:27:51;;;;;;;2.78;1.70;;;;;;;27.73;34.14;101686.50;4998518;28;97549;-79
2023/06/08 07:30:18;;;;;;;1.90;1.60;;;;;;;27.74;34.11;101692.88;5009324;28;96637;-78
2023/06/08 07:32:45;;;;;;;3.05;1.95;;;;;;;27.74;34.42;101692.88;5009995;28;97497;-78
2023/06/08 07:35:12;;;;;;;2.20;1.75;;;;;;;27.74;34.49;101688.22;4996226;28;97916;-78
2023/06/08 07:37:39;;;;;;;2.92;1.80;;;;;;;27.75;34.54;101683.53;5008154;28;97090;-78
2023/06/08 07:40:09;;;;;;;3.00;1.90;;;;;;;27.74;34.66;101681.84;5009402;28;96831;-78
2023/06/08 07:42:36;;;;;;;2.95;1.80;;;;;;;27.75;34.49;101680.78;5006111;28;96902;-79
2023/06/08 07:45:03;;;;;;;2.50;1.80;;;;;;;27.74;34.62;101679.94;5008645;28;98115;-78
2023/06/08 07:47:30;;;;;;;2.55;1.92;;;;;;;27.75;34.62;101678.03;5006989;28;100157;-79
2023/06/08 07:49:56;;;;;;;2.60;1.73;;;;;;;27.75;34.32;101678.88;5008603;28;96777;-78
2023/06/08 07:52:23;;;;;;;3.15;1.70;;;;;;;27.76;34.65;101674.22;5009722;28;96602;-78
2023/06/08 07:54:50;;;;;;;2.22;1.73;;;;;;;27.75;34.43;101681.63;5008691;28;96768;-79
2023/06/08 07:57:18;;;;;;;2.33;1.90;;;;;;;27.77;34.36;101682.28;5007641;28;96734;-78
2023/06/08 07:59:45;;;;;;;2.05;1.70;;;;;;;27.77;34.42;101678.66;5008261;28;97138;-78
2023/06/08 08:02:11;;;;;;;3.00;1.98;;;;;;;27.77;34.24;101685.03;5009482;28;97058;-79
2023/06/08 08:04:38;;;;;;;2.25;1.50;;;;;;;27.76;34.59;101676.97;5008710;28;96749;-79
2023/06/08 08:07:05;;;;;;;3.72;1.75;;;;;;;27.76;34.49;101680.56;5007666;28;100033;-79
2023/06/08 08:09:33;;;;;;;2.15;1.58;;;;;;;27.77;34.35;101681.44;5008680;28;97345;-79
2023/06/08 08:11:59;;;;;;;2.38;1.75;;;;;;;27.78;34.56;101686.75;5007658;28;98878;-79
2023/06/08 08:14:26;;;;;;;2.97;1.90;;;;;;;27.78;34.29;101688.66;5008595;28;96714;-79
2023/06/08 08:16:53;;;;;;;3.03;1.95;;;;;;;27.78;34.36;101695.03;5008691;28;97312;-79
2023/06/08 08:19:20;;;;;;;2.05;1.80;;;;;;;27.78;34.54;101688.66;5007625;28;98383;-79
2023/06/08 08:21:47;;;;;;;2.78;1.80;;;;;;;27.78;34.44;101691.41;4991532;28;97001;-79
2023/06/08 08:24:13;;;;;;;2.10;1.63;;;;;;;27.78;34.54;101697.78;5007887;28;96970;-79
2023/06/08 08:26:43;;;;;;;2.75;2.00;;;;;;;27.80;34.49;101694.81;5007825;28;97314;-79
2023/06/08 08:29:09;;;;;;;3.67;2.05;;;;;;;27.79;34.63;101696.72;5008223;28;96645;-79
2023/06/08 08:31:36;;;;;;;2.40;1.90;;;;;;;27.79;34.53;101693.13;4990974;28;96878;-79
2023/06/08 08:34:03;;;;;;;1.90;1.60;;;;;;;27.79;34.55;101687.59;5009236;28;97526;-79
2023/06/08 08:36:30;;;;;;;2.00;1.80;;;;;;;27.79;34.49;101691.22;5008595;28;97674;-79
2023/06/08 08:38:57;;;;;;;2.58;1.90;;;;;;;27.80;34.52;101692.06;5007741;28;97011;-79
2023/06/08 08:41:28;;;;;;;2.80;1.88;;;;;;;27.80;34.40;101687.41;5009449;28;96735;-79
2023/06/08 08:44:03;;;;;;;2.08;1.60;;;;;;;27.81;34.31;101689.09;5007087;28;96744;-79
2023/06/08 08:46:39;;;;;;;2.03;1.63;;;;;;;27.79;34.58;101688.44;5007353;28;98158;-79
2023/06/08 08:49:17;;;;;;;2.70;1.92;;;;;;;27.80;34.43;101679.13;5008544;28;96991;-80
2023/06/08 08:51:53;;;;;;;2.08;1.88;;;;;;;27.80;34.40;101683.78;5009002;28;96775;-79
2023/06/08 08:54:31;;;;;;;2.05;1.83;;;;;;;27.80;34.26;101687.41;5008167;28;97060;-79
2023/06/08 08:56:58;;;;;;;2.35;1.98;;;;;;;27.80;34.29;101687.41;5001657;28;97171;-79
2023/06/08 08:59:29;;;;;;;2.15;1.75;;;;;;;27.80;34.41;101684.63;5006861;28;96823;-79
2023/06/08 09:01:56;;;;;;;2.40;1.98;;;;;;;27.80;34.54;101683.78;5008799;28;96808;-79
2023/06/08 09:04:23;;;;;;;1.80;1.67;;;;;;;27.81;34.38;101683.59;5007533;28;96897;-79
2023/06/08 09:06:51;;;;;;;2.95;1.90;;;;;;;27.81;34.43;101675.31;5006562;28;98709;-79
2023/06/08 09:09:21;;;;;;;2.40;1.67;;;;;;;27.81;34.49;101680.81;5007930;28;97133;-79
2023/06/08 09:11:58;;;;;;;2.88;1.65;;;;;;;27.83;34.41;101678.72;5006924;28;97381;-80
2023/06/08 09:14:26;;;;;;;2.25;1.80;;;;;;;27.81;34.24;101689.09;5006291;28;96996;-79
2023/06/08 09:16:54;;;;;;;3.00;2.20;;;;;;;27.82;34.02;101689.97;4983451;28;98747;-79
2023/06/08 09:19:22;;;;;;;2.10;1.80;;;;;;;27.82;34.45;101684.44;5007817;28;96806;-79
2023/06/08 09:21:49;;;;;;;2.25;1.92;;;;;;;27.82;34.42;101688.06;5008443;28;96827;-79
2023/06/08 09:24:22;;;;;;;2.72;1.80;;;;;;;27.83;34.39;101687.00;5007901;28;96679;-79
2023/06/08 09:26:58;;;;;;;2.38;1.73;;;;;;;27.83;34.42;101684.25;4989076;28;96936;-79
2023/06/08 09:29:38;;;;;;;2.65;2.15;;;;;;;27.84;34.34;101677.66;4999847;28;96705;-79
2023/06/08 09:32:05;;;;;;;2.90;1.77;;;;;;;27.82;34.42;101674.25;5006939;28;96664;-79
2023/06/08 09:34:47;;;;;;;2.33;1.98;;;;;;;27.83;34.39;101675.94;4992848;28;97956;-79
2023/06/08 09:37:14;;;;;;;1.75;1.65;;;;;;;27.83;34.69;101664.06;4990140;28;96781;-79
2023/06/08 09:39:43;;;;;;;2.97;1.80;;;;;;;27.84;34.40;101669.38;5007483;28;96777;-79
2023/06/08 09:42:11;;;;;;;3.03;1.90;;;;;;;27.85;34.42;101661.94;5006231;28;98530;-79
2023/06/08 09:44:38;;;;;;;2.95;1.70;;;;;;;27.85;34.39;101657.28;5006328;28;96853;-79
2023/06/08 09:47:23;;;;;;;2.58;1.90;;;;;;;27.87;34.44;101659.84;4989640;28;97990;-79
2023/06/08 09:49:51;;;;;;;2.35;1.80;;;;;;;27.84;34.36;101661.09;5005506;28;97448;-79
2023/06/08 09:52:22;;;;;;;2.42;1.83;;;;;;;27.85;34.30;101662.81;5005585;28;96884;-79
2023/06/08 09:54:50;;;;;;;3.50;1.73;;;;;;;27.87;34.32;101656.22;5006727;28;96628;-79
2023/06/08 09:57:20;;;;;;;2.88;2.15;;;;;;;27.87;34.52;101656.22;5008143;28;97847;-79
2023/06/08 09:59:54;;;;;;;2.22;1.70;;;;;;;27.88;34.40;101660.69;5006133;28;96704;-79
2023/06/08 10:02:24;;;;;;;2.45;1.80;;;;;;;27.87;34.29;101653.47;5007043;28;96894;-79
2023/06/08 10:04:55;;;;;;;2.33;2.08;;;;;;;27.88;34.41;101657.94;5005666;28;101140;-79
2023/06/08 10:07:29;;;;;;;2.13;1.52;;;;;;;27.88;34.44;101660.69;5007784;28;97209;-79
2023/06/08 10:10:01;;;;;;;2.20;1.50;;;;;;;27.88;34.27;101652.41;5004862;28;96855;-78
2023/06/08 10:12:28;;;;;;;2.47;1.75;;;;;;;27.88;34.58;101644.13;4978541;28;97471;-78
2023/06/08 10:14:57;;;;;;;4.07;1.77;;;;;;;27.89;34.35;101643.06;5005363;28;96808;-74
2023/06/08 10:17:25;;;;;;;2.47;1.80;;;;;;;27.85;34.38;101635.19;5006006;28;96784;-76
2023/06/08 10:19:53;;;;;;;3.00;1.80;;;;;;;27.78;34.60;101627.94;5006950;28;96832;-75
2023/06/08 10:22:20;;;;;;;2.60;1.80;;;;;;;27.73;34.46;101628.53;5008644;28;97454;-76
2023/06/08 10:24:48;;;;;;;3.03;2.00;;;;;;;27.70;34.58;101631.72;5006323;28;97813;-75
2023/06/08 10:27:33;;;;;;;2.67;1.95;;;;;;;27.66;34.64;101635.06;5007231;28;96888;-76
2023/06/08 10:30:03;;;;;;;3.03;1.90;;;;;;;27.64;34.72;101626.16;4999335;28;96812;-75
2023/06/08 10:32:36;;;;;;;3.03;2.03;;;;;;;27.61;34.67;101621.88;5005457;28;97135;-76
2023/06/08 10:35:06;;;;;;;3.15;1.63;;;;;;;27.60;34.61;101622.06;5001398;28;97710;-76
2023/06/08 10:37:35;;;;;;;2.25;1.88;;;;;;;27.57;34.73;101626.06;4987369;28;99075;-75
2023/06/08 10:40:10;;;;;;;2.53;2.00;;;;;;;27.56;34.80;101616.09;5004813;28;98373;-75
2023/06/08 10:42:49;;;;;;;3.38;1.80;;;;;;;27.54;34.75;101618.19;5004189;28;97472;-75
2023/06/08 10:45:16;;;;;;;5.07;2.20;;;;;;;27.51;34.73;101611.16;4993163;28;97588;-75
2023/06/08 10:47:43;;;;;;;3.47;2.00;;;;;;;27.52;34.76;101612.03;4977810;28;98859;-75
2023/06/08 10:50:11;;;;;;;2.45;1.80;;;;;;;27.52;35.00;101606.50;4995170;28;96956;-75
2023/06/08 10:52:45;;;;;;;3.03;1.80;;;;;;;27.51;34.74;101613.94;4989734;28;96768;-75
2023/06/08 10:55:16;;;;;;;3.75;1.65;;;;;;;27.50;34.99;101608.63;5000977;28;99227;-75
2023/06/08 10:57:45;;;;;;;3.03;1.80;;;;;;;27.49;34.75;101606.88;5015451;28;97534;-75
2023/06/08 11:00:31;;;;;;;2.05;1.85;;;;;;;27.49;34.95;101598.59;5005338;28;96862;-75
2023/06/08 11:03:04;;;;;;;2.38;1.60;;;;;;;27.47;34.94;101593.28;5007479;28;97010;-75
2023/06/08 11:05:32;;;;;;;2.92;1.98;;;;;;;27.45;34.80;101589.88;5009502;28;97452;-75
2023/06/08 11:08:00;;;;;;;2.40;1.80;;;;;;;27.44;34.59;101588.16;5010319;28;97064;-74
2023/06/08 11:10:30;;;;;;;1.88;1.60;;;;;;;27.46;35.04;101587.97;5009716;28;96795;-75
2023/06/08 11:13:08;;;;;;;2.58;1.92;;;;;;;27.45;34.82;101583.50;5009247;28;96703;-75
2023/06/08 11:15:39;;;;;;;1.95;1.70;;;;;;;27.43;34.94;101582.84;5029298;28;96954;-75
2023/06/08 11:18:08;;;;;;;2.78;1.90;;;;;;;27.42;34.98;101576.47;5014121;28;96665;-75
2023/06/08 11:20:39;;;;;;;2.90;1.92;;;;;;;27.42;34.89;101576.47;5008474;28;96995;-77
2023/06/08 11:23:08;;;;;;;3.08;1.70;;;;;;;27.42;34.92;101573.72;5009587;28;96784;-79
2023/06/08 11:25:35;;;;;;;2.08;1.73;;;;;;;27.44;35.07;101587.31;4992163;28;98251;-77
2023/06/08 11:28:03;;;;;;;7.60;3.92;;;;;;;27.47;34.92;101581.41;5008421;28;98072;-74
2023/06/08 11:30:37;;;;;;;19.20;11.35;;;;;;;27.48;34.84;101575.69;5009332;28;97165;-76
2023/06/08 11:33:05;;;;;;;31.90;18.15;;;;;;;27.50;35.21;101568.09;4980783;28;96965;-76